Time;durP1;ratioP1;P1;durP2;ratioP2;P2;SDS_P1;SDS_P2;PMS_P1;PMS_P2;Temp;Humidity;BMP_temperature;BMP_pressure;BME280_temperature;BME280_humidity;BME280_pressure;Samples;Min_cycle;Max_cycle;Signal;HPM_P1;HPM_P2
2022/05/11 00:00:45;;;;;;;1.42;1.33;;;13.90;1.40;;;15.18;100.00;95587.39;645436;216;31528;-73
2022/05/11 00:03:27;;;;;;;0.98;0.88;;;13.90;1.40;;;15.14;100.00;95584.47;647183;216;31704;-73
2022/05/11 00:06:09;;;;;;;2.00;1.60;;;13.90;1.40;;;15.14;100.00;95584.07;646436;216;31545;-73
2022/05/11 00:08:50;;;;;;;1.77;1.27;;;13.80;1.40;;;15.07;100.00;95582.39;640436;215;31675;-73
2022/05/11 00:11:32;;;;;;;1.85;1.20;;;13.70;1.40;;;14.97;100.00;95580.11;646440;216;31521;-73
2022/05/11 00:16:52;;;;;;;1.30;1.20;;;13.70;1.40;;;14.91;100.00;95579.34;646973;216;42485;-73
2022/05/11 00:19:33;;;;;;;2.47;1.52;;;13.60;1.40;;;14.85;100.00;95574.88;647282;212;31534;-73
2022/05/11 00:22:21;;;;;;;1.50;1.40;;;13.60;1.40;;;14.74;100.00;95573.59;647344;212;31572;-76
2022/05/11 00:25:09;;;;;;;2.03;1.77;;;13.40;1.40;;;14.62;100.00;95576.08;646627;216;31615;-73
2022/05/11 00:27:53;;;;;;;2.22;1.58;;;13.20;1.40;;;14.60;100.00;95574.17;646131;216;31622;-73
2022/05/11 00:30:34;;;;;;;1.62;1.52;;;13.30;1.40;;;14.61;100.00;95571.10;619202;226;31872;-74
2022/05/11 00:35:54;;;;;;;1.10;0.80;;;13.40;1.40;;;14.54;100.00;95568.66;647754;212;31508;-74
2022/05/11 00:38:36;;;;;;;1.05;0.95;;;13.30;1.40;;;14.49;100.00;95565.87;646948;216;31607;-72
2022/05/11 00:41:22;;;;;;;1.15;0.95;;;13.30;1.40;;;14.45;100.00;95567.06;645622;214;33200;-73
2022/05/11 00:44:06;;;;;;;1.62;1.10;;;13.20;1.40;;;14.38;100.00;95568.02;647200;216;39193;-73
2022/05/11 00:46:57;;;;;;;2.37;1.30;;;13.10;1.40;;;14.26;100.00;95562.03;647828;216;31626;-73
2022/05/11 00:49:40;;;;;;;2.90;1.50;;;12.90;1.40;;;14.18;100.00;95559.50;647146;216;32337;-73
2022/05/11 00:52:41;;;;;;;1.00;0.90;;;12.90;1.40;;;14.16;100.00;95554.80;647093;216;43374;-73
2022/05/11 00:55:39;;;;;;;1.10;0.85;;;12.80;1.40;;;14.11;100.00;95557.49;646536;216;31585;-73
2022/05/11 00:58:23;;;;;;;1.80;1.37;;;12.80;1.40;;;14.08;100.00;95553.11;619128;225;32375;-73
2022/05/11 01:01:04;;;;;;;1.50;1.30;;;12.80;1.40;;;14.01;100.00;95554.55;646040;216;32484;-73
2022/05/11 01:06:20;;;;;;;2.10;1.30;;;12.70;1.40;;;13.97;100.00;95555.62;646387;216;42158;-73
2022/05/11 01:09:02;;;;;;;1.98;1.60;;;12.60;1.40;;;13.91;100.00;95551.80;626480;217;42498;-73
2022/05/11 01:11:46;;;;;;;1.80;1.00;;;12.70;1.40;;;13.95;100.00;95550.87;645897;216;40500;-72
2022/05/11 01:14:29;;;;;;;1.80;1.20;;;12.70;1.40;;;13.94;100.00;95552.63;618856;226;32030;-73
2022/05/11 01:17:10;;;;;;;1.80;1.17;;;12.80;1.40;;;13.88;100.00;95550.17;647344;216;43356;-73
2022/05/11 01:19:53;;;;;;;1.85;1.30;;;12.70;1.40;;;13.91;100.00;95549.91;646174;216;42221;-73
2022/05/11 01:22:37;;;;;;;1.42;1.27;;;12.70;1.40;;;13.79;100.00;95544.91;646841;216;42052;-74
2022/05/11 01:25:19;;;;;;;1.37;1.20;;;12.60;1.40;;;13.75;100.00;95545.43;645467;213;42549;-73
2022/05/11 01:28:05;;;;;;;3.50;0.98;;;12.50;1.40;;;13.61;100.00;95549.78;647466;212;31474;-73
2022/05/11 01:30:48;;;;;;;1.20;0.80;;;12.30;1.40;;;13.61;100.00;95547.05;646516;216;42175;-73
2022/05/11 01:35:59;;;;;;;1.23;1.12;;;12.30;1.40;;;13.60;100.00;95553.48;618139;225;31875;-72
2022/05/11 01:38:44;;;;;;;1.00;0.80;;;12.40;1.40;;;13.68;100.00;95548.30;646581;212;36666;-73
2022/05/11 01:41:31;;;;;;;1.90;1.12;;;12.40;1.40;;;13.72;100.00;95547.33;645438;216;31465;-73
2022/05/11 01:44:13;;;;;;;1.20;1.10;;;12.50;1.40;;;13.65;100.00;95551.05;647918;216;41639;-73
2022/05/11 01:46:54;;;;;;;1.70;1.30;;;12.40;1.40;;;13.66;100.00;95548.02;646722;216;32543;-73
2022/05/11 01:49:37;;;;;;;1.83;1.30;;;12.40;1.40;;;13.62;100.00;95547.65;619149;225;42534;-73
2022/05/11 01:52:18;;;;;;;0.85;0.70;;;12.40;1.40;;;13.57;100.00;95545.95;646620;212;36076;-73
2022/05/11 01:54:59;;;;;;;2.40;1.02;;;12.40;1.40;;;13.62;100.00;95546.50;647283;216;33515;-73
2022/05/11 01:57:44;;;;;;;1.90;1.50;;;12.40;1.40;;;13.72;100.00;95538.62;645858;216;32002;-73
2022/05/11 02:00:26;;;;;;;1.83;1.15;;;12.50;1.40;;;13.82;100.00;95541.50;647164;212;31581;-73
2022/05/11 02:03:08;;;;;;;1.00;0.90;;;12.60;1.40;;;13.86;100.00;95538.31;646458;216;37423;-73
2022/05/11 02:08:37;;;;;;;2.40;1.52;;;12.70;1.40;;;13.88;100.00;95536.53;642708;216;36744;-73
2022/05/11 02:11:18;;;;;;;1.45;1.35;;;12.70;1.40;;;13.86;100.00;95539.29;645958;216;41436;-73
2022/05/11 02:14:00;;;;;;;3.35;1.23;;;12.60;1.40;;;13.85;100.00;95533.84;619044;226;32277;-73
2022/05/11 02:16:42;;;;;;;2.50;1.80;;;12.60;1.40;;;13.90;100.00;95534.30;647599;216;31628;-73
2022/05/11 02:19:23;;;;;;;2.10;1.40;;;12.60;1.40;;;13.90;100.00;95534.61;646748;216;42509;-73
2022/05/11 02:22:05;;;;;;;1.40;1.30;;;12.70;1.40;;;13.88;100.00;95532.14;647174;212;31587;-73
2022/05/11 02:24:47;;;;;;;1.00;0.90;;;12.60;1.40;;;13.85;100.00;95536.38;646618;212;42166;-73
2022/05/11 02:27:28;;;;;;;1.08;0.98;;;12.60;1.40;;;13.87;100.00;95532.33;646113;216;42157;-73
2022/05/11 02:30:11;;;;;;;1.30;1.20;;;12.60;1.40;;;13.81;100.00;95534.09;647869;216;31535;-73
2022/05/11 02:32:55;;;;;;;1.70;1.12;;;12.60;1.40;;;13.76;100.00;95535.25;631415;222;32932;-77
2022/05/11 02:35:57;;;;;;;1.17;1.08;;;12.50;1.40;;;13.77;100.00;95533.09;646465;216;32246;-73
2022/05/11 02:38:39;;;;;;;1.90;1.37;;;12.60;1.40;;;13.73;100.00;95530.34;615034;227;31885;-73
2022/05/11 02:41:20;;;;;;;2.03;1.83;;;12.50;1.40;;;13.73;100.00;95533.61;646387;216;32272;-73
2022/05/11 02:44:02;;;;;;;1.50;1.40;;;12.50;1.40;;;13.68;100.00;95533.38;646112;216;32158;-74
2022/05/11 02:46:44;;;;;;;1.90;1.50;;;12.40;1.40;;;13.70;100.00;95532.08;646495;216;42520;-73
2022/05/11 02:49:25;;;;;;;2.75;1.50;;;12.50;1.40;;;13.69;100.00;95534.53;646305;216;36247;-73
2022/05/11 02:52:07;;;;;;;1.10;1.00;;;12.50;1.40;;;13.67;100.00;95535.31;646168;216;42192;-74
2022/05/11 02:54:52;;;;;;;1.50;0.82;;;12.40;1.40;;;13.59;100.00;95535.81;646829;216;34639;-74
2022/05/11 02:57:34;;;;;;;1.20;1.10;;;12.30;1.40;;;13.57;100.00;95539.78;645784;216;31673;-73
2022/05/11 03:00:15;;;;;;;1.37;1.12;;;12.30;1.40;;;13.53;100.00;95544.17;647073;216;41986;-73
2022/05/11 03:03:00;;;;;;;1.12;0.70;;;12.30;1.40;;;13.48;100.00;95545.72;646469;212;40323;-73
2022/05/11 03:05:42;;;;;;;1.60;1.30;;;12.20;1.40;;;13.47;100.00;95548.22;647187;212;31555;-73
2022/05/11 03:08:23;;;;;;;1.42;0.85;;;12.20;1.40;;;13.45;100.00;95547.16;643635;216;31901;-73
2022/05/11 03:11:05;;;;;;;2.42;1.40;;;12.20;1.40;;;13.35;100.00;95547.36;647060;216;32798;-73
2022/05/11 03:13:47;;;;;;;1.50;1.10;;;12.00;1.40;;;13.42;100.00;95545.38;646187;216;31584;-73
2022/05/11 03:16:32;;;;;;;1.30;1.20;;;12.20;1.40;;;13.49;100.00;95542.80;646020;216;33218;-73
2022/05/11 03:19:13;;;;;;;1.40;1.00;;;12.30;1.40;;;13.52;100.00;95545.95;646373;216;31551;-73
2022/05/11 03:24:29;;;;;;;1.80;1.70;;;12.30;1.40;;;13.52;100.00;95548.38;646330;216;31581;-73
2022/05/11 03:27:11;;;;;;;1.17;0.82;;;12.20;1.40;;;13.46;100.00;95555.02;646153;216;31591;-73
2022/05/11 03:29:53;;;;;;;1.00;0.70;;;12.20;1.40;;;13.40;100.00;95552.92;646233;216;31625;-73
2022/05/11 03:35:51;;;;;;;2.60;1.23;;;12.00;1.40;;;13.23;100.00;95551.89;645844;212;31587;-73
2022/05/11 03:38:32;;;;;;;1.20;0.80;;;11.90;1.40;;;13.17;100.00;95543.45;646481;216;40213;-74
2022/05/11 03:41:14;;;;;;;1.27;1.17;;;12.00;1.40;;;13.28;100.00;95544.80;645894;216;31764;-74
2022/05/11 03:43:59;;;;;;;1.20;1.10;;;12.00;1.40;;;13.22;100.00;95539.27;646917;216;31574;-73
2022/05/11 03:46:40;;;;;;;1.23;0.70;;;12.00;1.40;;;13.26;100.00;95544.75;647397;216;32021;-73
2022/05/11 03:49:22;;;;;;;1.52;0.98;;;12.00;1.40;;;13.21;100.00;95543.02;646992;216;42757;-73
2022/05/11 03:52:05;;;;;;;1.50;1.00;;;12.00;1.40;;;13.21;100.00;95541.00;646551;216;32303;-73
2022/05/11 03:54:49;;;;;;;2.20;1.30;;;12.10;1.40;;;13.23;100.00;95540.30;635011;220;31867;-73
2022/05/11 03:57:33;;;;;;;1.00;1.00;;;12.00;1.40;;;13.23;100.00;95537.73;647445;212;31556;-74
2022/05/11 04:00:14;;;;;;;1.40;1.10;;;12.00;1.40;;;13.24;100.00;95540.57;646020;212;32796;-73
2022/05/11 04:02:56;;;;;;;1.23;0.98;;;12.10;1.40;;;13.26;100.00;95539.43;645972;212;31561;-73
2022/05/11 04:05:38;;;;;;;3.40;0.90;;;12.10;1.40;;;13.35;100.00;95539.47;618216;226;31851;-74
2022/05/11 04:08:19;;;;;;;1.00;0.80;;;12.10;1.40;;;13.35;100.00;95541.27;642976;216;32020;-74
2022/05/11 04:11:02;;;;;;;1.50;1.02;;;12.20;1.40;;;13.36;100.00;95539.08;646849;216;31784;-74
2022/05/11 04:13:43;;;;;;;1.45;0.85;;;12.20;1.40;;;13.33;100.00;95542.13;646798;212;31558;-73
2022/05/11 04:16:24;;;;;;;2.50;1.20;;;12.10;1.40;;;13.32;100.00;95542.06;647116;216;33212;-73
2022/05/11 04:19:06;;;;;;;1.10;1.00;;;12.10;1.40;;;13.30;100.00;95547.73;646806;212;31574;-73
2022/05/11 04:21:54;;;;;;;0.98;0.80;;;12.10;1.40;;;13.33;100.00;95549.98;647558;216;32233;-77
2022/05/11 04:24:41;;;;;;;1.70;0.90;;;12.10;1.40;;;13.40;100.00;95546.55;642784;217;31605;-73
2022/05/11 04:27:23;;;;;;;1.20;0.80;;;12.10;1.40;;;13.45;100.00;95550.72;645996;212;35613;-73
2022/05/11 04:30:06;;;;;;;1.10;0.75;;;12.20;1.40;;;13.52;100.00;95545.55;647232;216;32366;-73
2022/05/11 04:32:48;;;;;;;1.05;0.68;;;12.20;1.40;;;13.58;100.00;95551.83;646754;216;32120;-73
2022/05/11 04:35:51;;;;;;;1.85;1.40;;;12.30;1.40;;;13.64;100.00;95550.17;645371;216;31713;-73
2022/05/11 04:38:32;;;;;;;0.90;0.70;;;12.50;1.40;;;13.77;100.00;95548.72;619136;222;39092;-73
2022/05/11 04:41:15;;;;;;;1.20;0.93;;;12.70;1.40;;;13.88;100.00;95548.81;647951;212;31612;-73
2022/05/11 04:43:59;;;;;;;1.20;0.88;;;12.70;1.40;;;13.99;100.00;95553.53;646539;216;31519;-74
2022/05/11 04:46:41;;;;;;;1.50;1.00;;;12.90;1.40;;;14.13;100.00;95549.75;646292;212;31577;-73
2022/05/11 04:49:23;;;;;;;0.80;0.80;;;13.10;1.40;;;14.29;100.00;95554.23;647500;216;31556;-73
2022/05/11 04:52:07;;;;;;;1.10;1.00;;;13.10;1.40;;;14.32;100.00;95555.58;646604;216;31661;-73
2022/05/11 04:54:48;;;;;;;1.10;0.85;;;13.10;1.40;;;14.39;100.00;95558.54;646383;216;32508;-73
2022/05/11 04:57:30;;;;;;;1.45;0.90;;;13.20;1.40;;;14.47;100.00;95557.48;647157;216;31509;-73
2022/05/11 05:00:12;;;;;;;0.95;0.80;;;13.30;1.40;;;14.61;100.00;95557.02;646996;212;42145;-73
2022/05/11 05:02:54;;;;;;;2.10;1.60;;;13.40;1.40;;;14.73;100.00;95555.63;618916;226;32517;-73
2022/05/11 05:05:36;;;;;;;1.08;0.98;;;13.50;1.40;;;14.84;100.00;95558.28;647023;212;42142;-73
2022/05/11 05:08:18;;;;;;;1.98;1.30;;;13.70;1.40;;;14.97;100.00;95557.37;643218;216;31667;-73
2022/05/11 05:10:59;;;;;;;1.58;1.23;;;13.80;1.40;;;15.08;100.00;95558.73;647044;216;32288;-74
2022/05/11 05:13:42;;;;;;;1.60;1.10;;;13.90;1.40;;;15.20;100.00;95560.48;645497;216;31518;-74
2022/05/11 05:16:24;;;;;;;1.40;0.70;;;14.00;1.40;;;15.32;100.00;95558.73;647034;212;32135;-74
2022/05/11 05:19:06;;;;;;;0.98;0.88;;;14.10;1.40;;;15.44;100.00;95562.45;648092;216;31607;-73
2022/05/11 05:21:48;;;;;;;1.40;1.30;;;14.20;1.40;;;15.60;100.00;95563.74;646626;212;31553;-73
2022/05/11 05:24:30;;;;;;;3.08;0.90;;;14.40;1.40;;;15.73;100.00;95565.46;647264;212;31573;-73
2022/05/11 05:27:12;;;;;;;1.42;1.30;;;14.60;1.40;;;15.87;100.00;95563.95;647517;216;31786;-73
2022/05/11 05:32:44;;;;;;;1.40;1.10;;;14.80;1.40;;;16.09;100.00;95568.86;646574;216;31534;-74
2022/05/11 05:35:51;;;;;;;1.30;1.00;;;14.90;1.40;;;16.26;100.00;95565.02;647087;212;31595;-74
2022/05/11 05:38:32;;;;;;;1.20;0.80;;;15.00;1.40;;;16.39;100.00;95569.14;646463;216;31492;-73
2022/05/11 05:41:14;;;;;;;1.60;1.00;;;15.00;1.40;;;16.41;100.00;95576.64;647064;216;31520;-74
2022/05/11 05:46:32;;;;;;;1.60;1.30;;;15.10;1.40;;;16.56;100.00;95572.14;647129;212;31862;-73
2022/05/11 05:49:17;;;;;;;1.40;1.00;;;15.20;1.40;;;16.70;100.00;95576.38;646164;212;31524;-73
2022/05/11 05:51:59;;;;;;;1.55;1.45;;;15.30;1.40;;;16.85;100.00;95581.37;646802;216;31711;-76
2022/05/11 05:54:41;;;;;;;1.10;1.00;;;15.50;1.40;;;17.01;100.00;95580.44;646107;212;31974;-74
2022/05/11 05:57:22;;;;;;;1.12;0.90;;;15.70;1.40;;;17.16;100.00;95575.33;619262;226;32064;-73
2022/05/11 06:00:05;;;;;;;1.10;0.80;;;15.90;1.40;;;17.28;100.00;95572.13;645848;216;31743;-72
2022/05/11 06:02:47;;;;;;;1.77;1.00;;;16.00;1.40;;;17.44;100.00;95574.13;646649;212;31552;-72
2022/05/11 06:05:29;;;;;;;3.12;1.50;;;16.20;1.40;;;17.55;100.00;95575.59;618152;226;32034;-73
2022/05/11 06:08:15;;;;;;;1.00;1.00;;;16.30;1.40;;;17.64;100.00;95574.58;644193;216;31710;-73
2022/05/11 06:10:53;;;;;;;3.60;1.42;;;16.40;1.40;;;17.78;100.00;95569.91;646215;212;31628;-73
2022/05/11 06:13:35;;;;;;;1.40;1.10;;;16.50;1.40;;;17.99;100.00;95574.30;646826;216;31641;-73
2022/05/11 06:16:19;;;;;;;1.27;0.90;;;16.70;1.40;;;18.16;100.00;95570.37;645764;216;31476;-73
2022/05/11 06:19:01;;;;;;;0.75;0.73;;;16.90;1.40;;;18.27;100.00;95574.77;645648;216;31538;-73
2022/05/11 06:21:44;;;;;;;1.52;0.90;;;17.10;1.40;;;18.38;100.00;95572.50;646829;212;31491;-72
2022/05/11 06:26:59;;;;;;;1.23;0.93;;;17.30;1.40;;;18.65;100.00;95568.66;645869;216;31624;-72
2022/05/11 06:29:41;;;;;;;2.17;1.27;;;17.40;1.40;;;18.72;100.00;95567.73;646669;216;31555;-73
2022/05/11 06:32:23;;;;;;;1.40;1.00;;;17.60;1.40;;;18.80;100.00;95568.56;646376;216;31510;-70
2022/05/11 06:35:51;;;;;;;0.80;0.70;;;17.70;1.40;;;18.98;100.00;95571.30;645451;216;31554;-72
2022/05/11 06:38:33;;;;;;;1.12;1.00;;;17.90;1.40;;;19.12;100.00;95573.45;646229;216;31684;-72
2022/05/11 06:41:15;;;;;;;4.80;1.20;;;18.00;1.40;;;19.37;100.00;95574.45;647148;216;31579;-72
2022/05/11 06:43:56;;;;;;;5.00;1.20;;;18.20;1.40;;;19.48;100.00;95579.11;646195;216;31544;-72
2022/05/11 06:46:41;;;;;;;1.67;0.90;;;18.30;1.40;;;19.50;100.00;95573.74;618681;222;31853;-74
2022/05/11 06:49:23;;;;;;;1.50;1.30;;;18.40;1.40;;;19.61;100.00;95575.61;632369;221;31805;-72
2022/05/11 06:52:05;;;;;;;2.40;1.12;;;18.50;1.40;;;19.78;100.00;95578.38;645763;216;31600;-73
2022/05/11 07:00:29;;;;;;;1.70;1.40;;;18.70;1.40;;;20.08;100.00;95563.08;646857;216;31507;-73
2022/05/11 07:03:10;;;;;;;2.40;1.60;;;18.90;1.40;;;20.10;99.27;95562.00;645838;216;42756;-75
2022/05/11 07:05:52;;;;;;;1.62;1.45;;;18.90;1.40;;;20.26;100.00;95561.69;646033;216;31863;-73
2022/05/11 07:08:37;;;;;;;1.20;1.10;;;19.10;1.40;;;20.46;100.00;95561.31;642165;216;31829;-73
2022/05/11 07:14:08;;;;;;;1.80;1.50;;;19.30;1.40;;;20.67;98.48;95557.17;645922;216;32153;-72
2022/05/11 07:16:47;;;;;;;2.10;1.60;;;19.40;1.40;;;20.71;99.21;95554.92;645745;216;32078;-73
2022/05/11 07:19:29;;;;;;;1.70;1.25;;;19.50;1.40;;;20.84;97.04;95555.37;647929;212;31975;-73
2022/05/11 07:22:10;;;;;;;1.50;1.30;;;19.60;1.40;;;20.97;96.57;95555.16;617595;226;31904;-73
2022/05/11 07:24:52;;;;;;;1.92;1.25;;;19.70;1.40;;;21.19;100.00;95558.70;645403;212;31564;-73
2022/05/11 07:27:34;;;;;;;1.55;1.30;;;20.00;1.40;;;21.29;96.67;95552.22;646418;216;31549;-73
2022/05/11 07:32:53;;;;;;;2.10;1.60;;;20.20;1.40;;;21.44;91.15;95555.48;645809;216;31751;-73
2022/05/11 07:35:52;;;;;;;2.20;1.20;;;20.30;1.40;;;21.82;97.24;95557.73;645340;216;42274;-73
2022/05/11 07:38:38;;;;;;;1.50;1.10;;;20.60;1.40;;;21.81;92.64;95555.23;646378;212;31544;-73
2022/05/11 07:41:15;;;;;;;1.55;1.30;;;20.60;1.40;;;22.06;97.63;95550.13;645242;216;31627;-73
2022/05/11 07:43:57;;;;;;;2.00;1.50;;;20.90;1.40;;;21.89;90.06;95553.56;645127;216;31573;-72
2022/05/11 07:46:38;;;;;;;1.70;1.60;;;20.60;1.40;;;21.87;90.79;95549.11;647027;216;31682;-73
2022/05/11 07:49:20;;;;;;;1.70;1.50;;;20.50;1.40;;;21.85;90.48;95551.62;646694;216;31535;-73
2022/05/11 07:52:02;;;;;;;2.12;1.55;;;20.60;1.40;;;22.01;89.88;95545.63;645933;216;31672;-73
2022/05/11 08:00:07;;;;;;;2.10;1.30;;;20.90;1.40;;;22.17;94.45;95547.34;646204;216;31575;-73
2022/05/11 08:02:48;;;;;;;1.40;1.27;;;21.10;1.40;;;22.13;86.49;95547.13;646963;216;31592;-73
2022/05/11 08:05:32;;;;;;;3.07;1.37;;;21.10;1.40;;;22.21;87.27;95547.78;646538;216;32586;-73
2022/05/11 08:08:11;;;;;;;2.30;2.00;;;21.00;1.40;;;22.28;89.09;95543.92;645069;216;32046;-73
2022/05/11 08:10:53;;;;;;;2.37;1.48;;;21.20;1.40;;;22.22;87.19;95541.81;646702;216;32047;-72
2022/05/11 08:13:35;;;;;;;1.92;1.50;;;21.20;1.40;;;22.18;88.08;95544.95;646104;216;31863;-73
2022/05/11 08:16:18;;;;;;;2.33;1.40;;;21.10;1.40;;;22.48;86.36;95543.75;646912;212;31702;-73
2022/05/11 08:18:58;;;;;;;1.65;1.55;;;21.40;1.40;;;22.69;85.85;95543.39;646643;216;31636;-73
2022/05/11 08:21:43;;;;;;;1.60;1.30;;;21.60;1.40;;;22.65;85.18;95550.34;646524;216;31527;-73
2022/05/11 08:24:26;;;;;;;1.60;1.50;;;21.60;1.40;;;22.49;87.14;95554.19;645939;216;31798;-73
2022/05/11 08:27:09;;;;;;;1.63;1.40;;;21.40;1.40;;;22.67;83.62;95548.70;646242;216;31588;-73
2022/05/11 08:35:50;;;;;;;1.70;1.30;;;21.80;1.40;;;22.97;84.22;95548.94;647197;212;31622;-73
2022/05/11 08:38:32;;;;;;;2.08;1.50;;;21.80;1.40;;;22.90;83.26;95541.77;645979;216;31566;-73
2022/05/11 08:41:40;;;;;;;1.95;1.67;;;21.90;1.40;;;23.15;83.25;95533.59;645432;216;31549;-73
2022/05/11 08:44:22;;;;;;;1.70;1.30;;;22.00;1.40;;;23.16;81.04;95533.58;646133;216;31798;-73
2022/05/11 08:52:28;;;;;;;1.90;1.70;;;22.30;1.40;;;23.35;81.13;95534.82;647206;216;36067;-73
2022/05/11 08:55:14;;;;;;;4.85;1.95;;;22.20;1.40;;;23.52;81.55;95532.86;645091;216;31530;-73
2022/05/11 08:57:56;;;;;;;1.52;1.40;;;22.40;1.40;;;23.74;79.53;95529.78;646986;216;32051;-73
2022/05/11 09:00:39;;;;;;;1.65;1.50;;;22.90;1.40;;;23.92;78.66;95526.87;618969;226;31994;-73
2022/05/11 09:03:27;;;;;;;1.40;1.30;;;22.90;1.40;;;23.81;73.17;95526.73;646110;212;31692;-73
2022/05/11 09:06:07;;;;;;;2.55;1.35;;;22.80;1.40;;;23.91;73.57;95526.50;645913;212;31707;-72
2022/05/11 09:08:49;;;;;;;1.67;1.45;;;22.90;1.40;;;23.99;74.15;95525.27;641299;216;31695;-73
2022/05/11 09:11:31;;;;;;;1.98;1.42;;;23.00;1.40;;;24.26;73.30;95527.73;646926;216;35657;-73
2022/05/11 09:14:14;;;;;;;1.70;1.33;;;23.50;1.40;;;25.45;68.58;95520.36;646393;216;31569;-73
2022/05/11 09:16:55;;;;;;;1.52;1.42;;;26.00;1.40;;;26.07;60.78;95517.76;646220;216;31618;-73
2022/05/11 09:19:38;;;;;;;1.60;1.50;;;27.60;1.40;;;26.55;64.56;95520.28;645963;216;42167;-72
2022/05/11 09:22:19;;;;;;;1.50;1.40;;;27.20;1.40;;;26.66;60.44;95525.98;620001;225;32144;-73
2022/05/11 09:25:00;;;;;;;1.98;1.70;;;27.30;1.40;;;27.57;57.36;95512.54;645841;216;31491;-74
2022/05/11 09:27:48;;;;;;;2.70;1.50;;;28.30;1.40;;;27.13;52.12;95514.43;647351;216;42825;-74
2022/05/11 09:30:36;;;;;;;2.40;1.70;;;27.90;1.40;;;27.73;56.13;95516.02;646237;216;31571;-73
2022/05/11 09:35:54;;;;;;;1.53;1.43;;;27.90;1.40;;;26.84;54.84;95516.57;646866;216;31574;-74
2022/05/11 09:38:38;;;;;;;1.60;1.20;;;27.20;1.40;;;27.70;54.90;95511.08;646454;216;31524;-74
2022/05/11 09:41:22;;;;;;;3.10;1.58;;;28.10;1.40;;;27.22;52.80;95519.20;645724;212;31549;-74
2022/05/11 09:44:12;;;;;;;1.83;1.25;;;27.20;1.40;;;26.55;53.27;95509.80;619265;222;31890;-75
2022/05/11 09:46:56;;;;;;;1.30;1.20;;;27.20;1.40;;;27.67;52.12;95503.83;619241;226;32357;-74
2022/05/11 09:49:38;;;;;;;2.20;1.30;;;28.00;1.40;;;27.51;51.11;95506.77;630675;222;31959;-75
2022/05/11 09:52:30;;;;;;;1.52;1.30;;;27.00;1.40;;;27.83;48.84;95494.70;648179;216;31516;-74
2022/05/11 09:55:32;;;;;;;1.70;1.60;;;27.10;1.40;;;27.70;49.30;95497.53;619088;226;31874;-75
2022/05/11 09:58:15;;;;;;;1.25;1.15;;;27.30;1.40;;;27.55;47.35;95495.89;647278;216;31755;-74
2022/05/11 10:01:08;;;;;;;2.50;1.40;;;27.50;1.40;;;28.10;49.08;95489.03;646560;216;42367;-74
2022/05/11 10:03:51;;;;;;;1.58;1.48;;;27.90;1.40;;;28.63;48.83;95492.75;646508;216;31681;-74
2022/05/11 10:06:32;;;;;;;1.65;1.40;;;27.80;1.40;;;27.92;47.26;95496.14;646679;216;31445;-74
2022/05/11 10:09:20;;;;;;;1.30;1.20;;;27.30;1.40;;;28.71;46.69;95492.38;647132;216;31789;-74
2022/05/11 10:12:09;;;;;;;1.30;1.20;;;28.40;1.40;;;28.67;46.57;95494.07;647003;216;31609;-74
2022/05/11 10:23:44;;;;;;;1.92;1.40;;;27.90;1.40;;;28.78;42.36;95481.34;620480;226;31879;-75
2022/05/11 10:26:29;;;;;;;2.15;1.25;;;28.20;1.40;;;29.41;40.97;95476.79;631952;221;31692;-74
2022/05/11 10:29:47;;;;;;;1.50;1.30;;;28.60;1.40;;;29.04;42.10;95477.64;647003;216;32022;-75
2022/05/11 10:32:52;;;;;;;1.55;1.12;;;28.10;1.40;;;29.17;42.39;95480.48;647123;216;42362;-74
2022/05/11 10:38:37;;;;;;;2.45;1.40;;;27.90;1.40;;;29.68;41.34;95475.63;647376;216;31543;-74
2022/05/11 10:41:45;;;;;;;1.62;1.20;;;29.50;1.40;;;29.45;41.73;95475.08;647228;216;31520;-74
2022/05/11 10:44:41;;;;;;;1.40;1.10;;;27.40;1.40;;;28.91;41.55;95466.27;646718;216;31559;-74
2022/05/11 10:47:35;;;;;;;1.60;1.20;;;27.80;1.40;;;28.32;43.56;95470.48;618536;225;31926;-74
2022/05/11 10:50:23;;;;;;;1.50;1.30;;;27.50;1.40;;;28.83;40.63;95467.08;646741;212;42834;-73
2022/05/11 10:53:30;;;;;;;1.33;1.23;;;27.40;1.40;;;29.20;40.93;95464.13;648355;216;31789;-73
2022/05/11 10:56:36;;;;;;;1.30;1.20;;;27.50;1.40;;;29.50;39.43;95455.47;646560;212;31544;-73
2022/05/11 10:59:30;;;;;;;1.50;1.15;;;28.30;1.40;;;29.59;39.83;95456.02;619759;222;42658;-74
2022/05/11 11:02:35;;;;;;;1.33;1.23;;;28.30;1.40;;;30.22;38.29;95448.95;647948;212;32700;-74
2022/05/11 11:05:26;;;;;;;1.40;1.30;;;28.70;1.40;;;30.23;38.34;95447.41;646457;216;31664;-74
2022/05/11 11:08:23;;;;;;;1.48;1.37;;;28.10;1.40;;;30.05;38.31;95444.73;615210;222;32604;-74
2022/05/11 11:11:22;;;;;;;1.40;1.30;;;28.00;1.40;;;29.93;39.20;95440.12;648288;212;31573;-74
2022/05/11 11:14:10;;;;;;;1.30;1.20;;;27.90;1.40;;;29.73;38.12;95441.42;646476;212;32106;-74
2022/05/11 11:16:58;;;;;;;1.77;1.67;;;28.20;1.40;;;30.92;37.27;95429.17;647515;216;31594;-74
2022/05/11 11:19:41;;;;;;;2.30;1.48;;;29.10;1.40;;;31.17;38.00;95429.66;646282;212;31497;-74
2022/05/11 11:22:29;;;;;;;1.42;1.33;;;29.00;1.40;;;31.51;35.55;95430.22;641742;215;31558;-74
2022/05/11 11:25:22;;;;;;;1.73;1.37;;;28.80;1.40;;;31.89;36.46;95416.59;646277;212;31554;-74
2022/05/11 11:30:43;;;;;;;1.70;1.50;;;28.10;1.40;;;30.57;37.20;95413.25;647705;216;32396;-74
2022/05/11 11:35:54;;;;;;;1.25;1.15;;;28.50;1.40;;;30.29;35.16;95418.14;645500;216;31656;-74
2022/05/11 11:38:53;;;;;;;1.60;1.10;;;29.40;1.40;;;29.44;37.09;95424.12;647464;216;31585;-74
2022/05/11 11:44:30;;;;;;;1.37;1.25;;;28.40;1.40;;;30.49;34.85;95410.22;619347;225;31868;-74
2022/05/11 11:47:33;;;;;;;1.70;1.12;;;27.20;1.40;;;30.91;37.46;95399.95;647734;215;31672;-76
2022/05/11 11:50:14;;;;;;;2.45;1.40;;;28.20;1.40;;;31.24;35.87;95395.25;646251;216;31532;-76
2022/05/11 11:53:11;;;;;;;1.10;0.98;;;28.20;1.40;;;31.13;32.80;95389.45;645815;216;31616;-74
2022/05/11 11:55:53;;;;;;;1.10;1.00;;;28.50;1.40;;;30.23;36.49;95390.39;645555;216;31620;-74
2022/05/11 11:58:34;;;;;;;1.17;1.08;;;27.70;1.40;;;30.63;34.06;95383.70;645784;216;31651;-74
2022/05/11 12:01:18;;;;;;;1.33;1.23;;;27.70;1.40;;;29.41;35.52;95387.53;648447;216;32008;-73
2022/05/11 12:03:59;;;;;;;1.20;1.10;;;27.20;1.40;;;30.16;35.29;95389.84;647347;216;31739;-74
2022/05/11 12:15:10;;;;;;;1.00;0.90;;;28.00;1.40;;;30.43;34.48;95375.47;645236;216;31481;-74
2022/05/11 12:17:52;;;;;;;1.80;1.33;;;28.10;1.40;;;31.43;34.41;95366.13;646079;216;31563;-74
2022/05/11 12:20:41;;;;;;;2.25;1.00;;;28.80;1.40;;;30.85;35.35;95371.77;645668;216;31553;-74
2022/05/11 12:23:28;;;;;;;1.95;1.45;;;28.10;1.40;;;29.89;36.80;95370.74;646558;216;31518;-73
2022/05/11 12:26:08;;;;;;;1.90;1.17;;;27.70;1.40;;;30.03;33.42;95373.51;646238;216;31502;-74
2022/05/11 12:28:50;;;;;;;1.10;1.00;;;27.10;1.40;;;30.27;33.71;95360.14;618963;222;32019;-74
2022/05/11 12:31:32;;;;;;;1.33;1.08;;;27.80;1.40;;;31.96;32.72;95355.82;646877;216;42242;-74
2022/05/11 12:35:52;;;;;;;1.42;1.33;;;27.80;1.40;;;30.45;33.20;95361.27;618933;226;31993;-74
2022/05/11 12:38:35;;;;;;;3.12;1.10;;;27.50;1.40;;;30.13;34.18;95351.61;646172;216;31597;-74
2022/05/11 12:41:19;;;;;;;1.60;1.20;;;27.50;1.40;;;30.48;35.98;95349.52;646329;212;42875;-73
2022/05/11 12:44:04;;;;;;;1.65;1.20;;;28.10;1.40;;;30.18;33.45;95349.86;647090;212;32112;-74
2022/05/11 12:46:46;;;;;;;1.80;1.15;;;27.90;1.40;;;31.19;34.54;95346.84;618174;226;31857;-74
2022/05/11 12:49:29;;;;;;;2.00;1.10;;;28.40;1.40;;;30.80;34.93;95339.53;647154;216;31588;-77
2022/05/11 12:52:13;;;;;;;1.62;1.27;;;28.00;1.40;;;32.39;32.76;95334.58;646062;216;31523;-73
2022/05/11 12:54:55;;;;;;;5.30;1.30;;;28.60;1.40;;;32.96;33.35;95332.64;645647;212;32220;-74
2022/05/11 12:57:39;;;;;;;1.65;1.05;;;28.80;1.40;;;31.70;33.62;95331.34;618761;226;31872;-74
2022/05/11 13:00:22;;;;;;;1.20;1.10;;;28.20;1.40;;;32.44;31.60;95322.50;645593;216;31541;-74
2022/05/11 13:05:58;;;;;;;1.30;0.90;;;28.80;1.40;;;32.58;31.95;95312.95;641631;216;31676;-75